createdAt,value
2022-10-29T00:00:43.629Z,14.66
2022-10-29T00:03:10.418Z,14.72
2022-10-29T00:05:37.080Z,14.75
2022-10-29T00:08:03.861Z,14.74
2022-10-29T00:10:30.497Z,14.78
2022-10-29T00:13:02.400Z,14.69
2022-10-29T00:15:29.360Z,14.54
2022-10-29T00:17:56.421Z,14.53
2022-10-29T00:20:24.045Z,14.46
2022-10-29T00:22:54.324Z,14.41
2022-10-29T00:25:21.210Z,14.40
2022-10-29T00:27:47.773Z,14.41
2022-10-29T00:30:14.425Z,14.43
2022-10-29T00:32:41.211Z,14.51
2022-10-29T00:35:08.100Z,14.45
2022-10-29T00:37:36.218Z,14.52
2022-10-29T00:40:06.776Z,14.41
2022-10-29T00:42:33.426Z,14.36
2022-10-29T00:45:00.000Z,14.29
2022-10-29T00:47:30.314Z,14.32
2022-10-29T00:50:02.652Z,14.24
2022-10-29T00:52:32.550Z,14.25
2022-10-29T00:55:02.045Z,14.19
2022-10-29T00:57:36.944Z,14.23
2022-10-29T01:00:04.329Z,14.32
2022-10-29T01:02:33.483Z,14.27
2022-10-29T01:05:01.854Z,14.55
2022-10-29T01:07:29.028Z,14.46
2022-10-29T01:09:56.147Z,14.65
2022-10-29T01:12:34.944Z,14.35
2022-10-29T01:15:13.110Z,14.05
2022-10-29T01:17:54.224Z,14.14
2022-10-29T01:20:39.171Z,14.05
2022-10-29T01:23:39.951Z,14.03
2022-10-29T01:26:49.125Z,14.08
2022-10-29T01:29:30.684Z,14.07
2022-10-29T01:32:56.529Z,14.02
2022-10-29T01:35:38.470Z,14.09
2022-10-29T01:38:14.108Z,14.06
2022-10-29T01:40:47.492Z,14.12
2022-10-29T01:43:14.061Z,14.08
2022-10-29T01:45:48.097Z,14.00
2022-10-29T01:48:20.002Z,13.98
2022-10-29T01:50:51.059Z,13.97
2022-10-29T01:53:18.183Z,13.96
2022-10-29T01:55:44.724Z,13.88
2022-10-29T01:58:12.336Z,13.90
2022-10-29T02:01:03.901Z,13.87
2022-10-29T02:03:39.053Z,13.88
2022-10-29T02:06:14.649Z,13.81
2022-10-29T02:09:07.391Z,13.83
2022-10-29T02:11:43.085Z,13.77
2022-10-29T02:14:20.865Z,13.73
2022-10-29T02:16:48.396Z,13.65
2022-10-29T02:19:15.154Z,13.67
2022-10-29T02:21:42.594Z,13.74
2022-10-29T02:24:09.251Z,13.71
2022-10-29T02:26:35.952Z,13.74
2022-10-29T02:29:02.715Z,13.68
2022-10-29T02:31:29.980Z,13.58
2022-10-29T02:33:56.558Z,13.55
2022-10-29T02:36:23.193Z,13.59
2022-10-29T02:38:49.724Z,13.61
2022-10-29T02:41:16.284Z,13.46
2022-10-29T02:43:42.816Z,13.28
2022-10-29T02:46:23.131Z,13.26
2022-10-29T02:48:49.938Z,13.08
2022-10-29T02:51:17.443Z,13.03
2022-10-29T02:53:44.654Z,13.22
2022-10-29T02:56:11.742Z,13.11
2022-10-29T02:58:38.405Z,12.99
2022-10-29T03:01:05.324Z,12.85
2022-10-29T03:03:32.099Z,12.73
2022-10-29T03:05:58.736Z,12.71
2022-10-29T03:08:25.328Z,12.67
2022-10-29T03:10:51.976Z,12.68
2022-10-29T03:13:18.787Z,12.69
2022-10-29T03:15:45.970Z,12.72
2022-10-29T03:18:12.697Z,12.72
2022-10-29T03:20:39.472Z,12.72
2022-10-29T03:23:06.178Z,12.71
2022-10-29T03:25:32.952Z,12.78
2022-10-29T03:27:59.679Z,12.72
2022-10-29T03:30:26.211Z,12.75
2022-10-29T03:32:52.855Z,12.70
2022-10-29T03:35:19.527Z,12.65
2022-10-29T03:37:49.656Z,12.92
2022-10-29T03:40:17.182Z,12.92
2022-10-29T03:42:43.781Z,12.96
2022-10-29T03:45:11.000Z,13.04
2022-10-29T03:47:37.672Z,12.97
2022-10-29T03:50:04.819Z,13.00
2022-10-29T03:52:31.444Z,12.85
2022-10-29T03:54:58.012Z,12.74
2022-10-29T03:57:24.549Z,12.76
2022-10-29T03:59:52.640Z,12.71
2022-10-29T04:02:20.097Z,12.77
2022-10-29T04:04:46.829Z,12.83
2022-10-29T04:07:13.880Z,12.76
2022-10-29T04:09:40.484Z,12.76
2022-10-29T04:12:07.760Z,12.65
2022-10-29T04:14:34.569Z,12.69
2022-10-29T04:17:01.242Z,12.70
2022-10-29T04:19:27.824Z,12.74
2022-10-29T04:30:15.403Z,12.83
2022-10-29T04:32:42.017Z,12.83
2022-10-29T04:35:08.731Z,12.94
2022-10-29T04:37:35.330Z,12.92
2022-10-29T04:40:01.957Z,12.98
2022-10-29T04:42:28.537Z,13.06
2022-10-29T04:44:55.103Z,13.15
2022-10-29T04:47:21.669Z,13.29
2022-10-29T04:49:48.305Z,13.19
2022-10-29T04:52:14.845Z,13.12
2022-10-29T04:54:41.397Z,13.03
2022-10-29T04:57:07.923Z,13.06
2022-10-29T04:59:34.471Z,13.08
2022-10-29T05:02:01.014Z,13.11
2022-10-29T05:04:29.532Z,13.08
2022-10-29T05:06:56.196Z,13.13
2022-10-29T05:09:22.774Z,13.03
2022-10-29T05:11:49.320Z,13.10
2022-10-29T05:14:15.905Z,13.10
2022-10-29T05:16:42.474Z,13.11
2022-10-29T05:19:09.189Z,13.10
2022-10-29T05:21:35.993Z,13.12
2022-10-29T05:24:02.536Z,13.12
2022-10-29T05:26:31.788Z,13.11
2022-10-29T05:28:58.419Z,13.11
2022-10-29T05:31:24.966Z,13.11
2022-10-29T05:33:53.949Z,13.02
2022-10-29T05:36:22.475Z,12.90
2022-10-29T05:38:49.078Z,12.85
2022-10-29T05:41:15.845Z,12.85
2022-10-29T05:43:42.461Z,12.83
2022-10-29T05:46:09.025Z,12.89
2022-10-29T05:48:35.683Z,12.94
2022-10-29T05:51:02.307Z,13.02
2022-10-29T05:53:28.915Z,13.01
2022-10-29T05:55:55.560Z,13.02
2022-10-29T05:58:22.104Z,13.02
2022-10-29T06:00:48.660Z,12.98
2022-10-29T06:03:20.563Z,13.04
2022-10-29T06:05:48.447Z,13.11
2022-10-29T06:08:15.477Z,13.07
2022-10-29T06:10:42.014Z,13.05
2022-10-29T06:13:19.977Z,12.98
2022-10-29T06:15:47.934Z,12.89
2022-10-29T06:18:15.832Z,12.91
2022-10-29T06:20:43.762Z,12.88
2022-10-29T06:23:11.186Z,12.84
2022-10-29T06:25:37.786Z,12.91
2022-10-29T06:28:07.386Z,12.90
2022-10-29T06:30:35.412Z,12.88
2022-10-29T06:33:03.222Z,12.88
2022-10-29T06:35:30.194Z,12.90
2022-10-29T06:37:57.257Z,12.90
2022-10-29T06:40:23.956Z,12.93
2022-10-29T06:42:50.598Z,12.98
2022-10-29T06:45:17.288Z,13.02
2022-10-29T06:47:45.347Z,13.09
2022-10-29T06:50:13.927Z,13.15
2022-10-29T06:52:40.462Z,13.16
2022-10-29T06:55:08.422Z,13.13
2022-10-29T06:57:36.377Z,13.13
2022-10-29T07:00:07.526Z,13.19
2022-10-29T07:02:35.486Z,13.21
2022-10-29T07:05:02.071Z,13.28
2022-10-29T07:07:29.146Z,13.32
2022-10-29T07:09:55.904Z,13.35
2022-10-29T07:12:22.441Z,13.39
2022-10-29T07:14:49.057Z,13.42
2022-10-29T07:17:15.592Z,13.45
2022-10-29T07:19:42.119Z,13.45
2022-10-29T07:22:08.679Z,13.47
2022-10-29T07:24:35.219Z,13.52
2022-10-29T07:27:02.080Z,13.55
2022-10-29T07:29:28.720Z,13.58
2022-10-29T07:31:55.256Z,13.60
2022-10-29T07:34:21.769Z,13.63
2022-10-29T07:36:48.311Z,13.64
2022-10-29T07:39:14.873Z,13.65
2022-10-29T07:41:41.418Z,13.66
2022-10-29T07:44:07.988Z,13.63
2022-10-29T07:46:34.539Z,13.66
2022-10-29T07:49:01.077Z,13.65
2022-10-29T07:51:27.852Z,13.70
2022-10-29T07:53:54.395Z,13.73
2022-10-29T07:56:20.923Z,13.84
2022-10-29T07:58:47.526Z,13.93
2022-10-29T08:01:14.259Z,13.95
2022-10-29T08:03:40.937Z,14.02
2022-10-29T08:06:07.786Z,14.06
2022-10-29T08:08:35.017Z,14.16
2022-10-29T08:11:03.078Z,14.17
2022-10-29T08:13:30.241Z,14.23
2022-10-29T08:15:57.123Z,14.29
2022-10-29T08:18:23.674Z,14.36
2022-10-29T08:20:50.260Z,14.41
2022-10-29T08:23:16.849Z,14.46
2022-10-29T08:25:43.715Z,14.53
2022-10-29T08:28:14.775Z,14.55
2022-10-29T08:30:42.155Z,14.65
2022-10-29T08:33:09.618Z,14.65
2022-10-29T08:35:36.408Z,14.72
2022-10-29T08:38:02.963Z,14.72
2022-10-29T08:40:47.849Z,14.81
2022-10-29T08:43:32.319Z,14.88
2022-10-29T08:45:59.095Z,14.98
2022-10-29T08:48:28.458Z,14.99
2022-10-29T08:51:16.900Z,15.10
2022-10-29T08:53:58.923Z,15.16
2022-10-29T08:56:38.867Z,15.24
2022-10-29T08:59:11.613Z,15.36
2022-10-29T09:01:38.526Z,15.48
2022-10-29T09:04:24.424Z,15.55
2022-10-29T09:07:28.742Z,15.76
2022-10-29T09:10:16.779Z,15.95
2022-10-29T09:13:10.498Z,15.86
2022-10-29T09:15:56.364Z,15.87
2022-10-29T09:19:12.204Z,15.98
2022-10-29T09:21:57.845Z,15.93
2022-10-29T09:24:43.142Z,16.02
2022-10-29T09:27:16.917Z,16.05
2022-10-29T09:29:52.261Z,16.00
2022-10-29T09:32:26.718Z,16.07
2022-10-29T09:35:00.355Z,16.28
2022-10-29T09:37:54.924Z,16.37
2022-10-29T09:40:38.283Z,16.36
2022-10-29T09:43:33.548Z,16.49
2022-10-29T09:46:34.449Z,16.52
2022-10-29T09:49:08.706Z,16.53
2022-10-29T09:51:51.251Z,16.51
2022-10-29T09:54:18.195Z,16.60
2022-10-29T09:56:50.442Z,16.57
2022-10-29T09:59:35.177Z,16.74
2022-10-29T10:02:01.907Z,16.72
2022-10-29T10:04:34.432Z,16.72
2022-10-29T10:07:07.235Z,16.86
2022-10-29T10:09:55.530Z,16.86
2022-10-29T10:12:25.067Z,16.88
2022-10-29T10:15:22.544Z,17.03
2022-10-29T10:18:02.920Z,17.12
2022-10-29T10:20:45.630Z,17.10
2022-10-29T10:23:24.214Z,17.11
2022-10-29T10:25:53.375Z,17.07
2022-10-29T10:28:25.289Z,17.03
2022-10-29T10:31:03.763Z,17.02
2022-10-29T10:33:32.689Z,17.04
2022-10-29T10:36:05.686Z,17.07
2022-10-29T10:38:47.794Z,17.04
2022-10-29T10:41:16.375Z,17.05
2022-10-29T10:43:45.568Z,17.18
2022-10-29T10:46:27.961Z,17.30
2022-10-29T10:49:12.013Z,17.42
2022-10-29T10:51:42.778Z,17.54
2022-10-29T10:54:31.956Z,17.64
2022-10-29T10:57:04.791Z,17.70
2022-10-29T10:59:51.029Z,17.71
2022-10-29T11:02:55.329Z,17.92
2022-10-29T11:05:31.663Z,17.94
2022-10-29T11:08:17.387Z,17.92
2022-10-29T11:10:50.152Z,17.96
2022-10-29T11:13:21.788Z,18.04
2022-10-29T11:15:57.199Z,18.12
2022-10-29T11:18:41.811Z,18.09
2022-10-29T11:21:15.428Z,18.15
2022-10-29T11:23:52.122Z,18.29
2022-10-29T11:26:46.807Z,18.38
2022-10-29T11:29:32.049Z,18.40
2022-10-29T11:32:57.382Z,18.23
2022-10-29T11:35:31.345Z,18.28
2022-10-29T11:38:10.212Z,18.49
2022-10-29T11:41:05.071Z,18.56
2022-10-29T11:43:33.194Z,18.43
2022-10-29T11:46:11.858Z,18.55
2022-10-29T11:48:59.619Z,18.53
2022-10-29T11:51:35.481Z,18.44
2022-10-29T11:54:18.833Z,18.44
2022-10-29T11:56:59.134Z,18.44
2022-10-29T11:59:31.494Z,18.36
2022-10-29T12:02:26.654Z,18.42
2022-10-29T12:05:04.742Z,18.37
2022-10-29T12:07:46.140Z,18.45
2022-10-29T12:10:35.626Z,18.54
2022-10-29T12:13:20.275Z,18.49
2022-10-29T12:16:16.099Z,18.52
2022-10-29T12:19:07.429Z,18.27
2022-10-29T12:22:01.739Z,18.30
2022-10-29T12:24:46.436Z,18.45
2022-10-29T12:27:27.776Z,18.49
2022-10-29T12:30:03.056Z,18.51
2022-10-29T12:32:39.065Z,18.59
2022-10-29T12:35:17.678Z,18.82
2022-10-29T12:38:07.318Z,19.10
2022-10-29T12:40:35.297Z,19.00
2022-10-29T12:43:07.445Z,19.33
2022-10-29T12:45:48.083Z,19.15
2022-10-29T12:48:56.412Z,19.25
2022-10-29T12:51:54.935Z,19.30
2022-10-29T12:54:30.828Z,19.21
2022-10-29T12:57:19.906Z,19.12
2022-10-29T12:59:46.539Z,19.10
2022-10-29T13:02:25.465Z,19.14
2022-10-29T13:05:27.617Z,19.12
2022-10-29T13:07:57.073Z,19.16
2022-10-29T13:10:35.534Z,19.14
2022-10-29T13:13:23.755Z,19.21
2022-10-29T13:16:00.709Z,19.33
2022-10-29T13:18:41.737Z,19.12
2022-10-29T13:21:08.944Z,19.17
2022-10-29T13:23:37.661Z,19.20
2022-10-29T13:26:06.417Z,19.23
2022-10-29T13:28:35.999Z,19.14
2022-10-29T13:31:08.334Z,19.00
2022-10-29T13:33:37.887Z,18.96
2022-10-29T13:36:27.738Z,19.00
2022-10-29T13:39:08.940Z,19.07
2022-10-29T13:41:44.326Z,19.01
2022-10-29T13:44:12.897Z,19.08
2022-10-29T13:47:01.712Z,19.04
2022-10-29T13:49:33.058Z,19.11
2022-10-29T13:52:01.239Z,19.13
2022-10-29T13:54:35.397Z,18.99
2022-10-29T13:57:20.479Z,19.10
2022-10-29T13:59:57.467Z,18.88
2022-10-29T14:02:48.247Z,18.88
2022-10-29T14:05:21.671Z,18.92
2022-10-29T14:07:51.954Z,18.89
2022-10-29T14:10:24.125Z,18.93
2022-10-29T14:13:12.546Z,18.93
2022-10-29T14:15:39.986Z,18.92
2022-10-29T14:18:23.662Z,18.82
2022-10-29T14:20:58.081Z,18.84
2022-10-29T14:23:25.813Z,18.86
2022-10-29T14:25:54.905Z,18.88
2022-10-29T14:28:31.697Z,18.82
2022-10-29T14:31:05.717Z,18.72
2022-10-29T14:33:35.109Z,18.75
2022-10-29T14:36:37.181Z,18.69
2022-10-29T14:39:19.165Z,18.68
2022-10-29T14:41:47.544Z,18.57
2022-10-29T14:44:41.156Z,18.53
2022-10-29T14:47:18.609Z,18.53
2022-10-29T14:49:48.297Z,18.47
2022-10-29T14:52:33.710Z,18.53
2022-10-29T14:55:07.477Z,18.44
2022-10-29T14:57:38.858Z,18.45
2022-10-29T15:00:07.178Z,18.38
2022-10-29T15:02:39.005Z,18.30
2022-10-29T15:05:21.169Z,18.29
2022-10-29T15:07:48.697Z,18.22
2022-10-29T15:10:37.974Z,18.22
2022-10-29T15:13:20.424Z,18.18
2022-10-29T15:16:01.037Z,18.11
2022-10-29T15:18:28.850Z,18.11
2022-10-29T15:20:56.521Z,18.09
2022-10-29T15:23:44.993Z,18.07
2022-10-29T15:26:17.395Z,18.03
2022-10-29T15:28:46.035Z,18.00
2022-10-29T15:31:34.620Z,17.99
2022-10-29T15:34:10.236Z,17.99
2022-10-29T15:36:45.861Z,17.89
2022-10-29T15:39:20.037Z,17.73
2022-10-29T15:41:50.768Z,17.65
2022-10-29T15:44:39.744Z,17.59
2022-10-29T15:47:27.034Z,17.54
2022-10-29T15:49:53.881Z,17.44
2022-10-29T15:52:23.464Z,17.29
2022-10-29T15:54:50.291Z,17.15
2022-10-29T15:57:17.907Z,17.14
2022-10-29T15:59:44.536Z,17.08
2022-10-29T16:02:12.929Z,16.96
2022-10-29T16:04:39.847Z,16.82
2022-10-29T16:07:10.422Z,16.68
2022-10-29T16:09:37.299Z,16.72
2022-10-29T16:12:04.057Z,16.66
2022-10-29T16:14:30.706Z,16.74
2022-10-29T16:16:57.384Z,16.67
2022-10-29T16:19:23.989Z,16.66
2022-10-29T16:21:50.612Z,16.77
2022-10-29T16:24:17.285Z,16.66
2022-10-29T16:26:43.977Z,16.57
2022-10-29T16:29:10.790Z,16.51
2022-10-29T16:31:37.612Z,16.57
2022-10-29T16:34:06.097Z,16.50
2022-10-29T16:36:33.085Z,16.41
2022-10-29T16:38:59.709Z,16.39
2022-10-29T16:41:26.318Z,16.28
2022-10-29T16:43:53.052Z,16.27
2022-10-29T16:46:19.605Z,16.40
2022-10-29T16:48:46.587Z,16.37
2022-10-29T16:51:13.381Z,16.42
2022-10-29T16:53:39.984Z,16.33
2022-10-29T16:56:06.899Z,16.28
2022-10-29T16:58:33.565Z,16.21
2022-10-29T17:01:07.894Z,16.20
2022-10-29T17:03:35.407Z,16.17
2022-10-29T17:06:07.530Z,16.28
2022-10-29T17:08:35.063Z,16.22
2022-10-29T17:11:02.781Z,16.32
2022-10-29T17:13:32.404Z,16.17
2022-10-29T17:15:58.940Z,16.08
2022-10-29T17:18:25.541Z,16.05
2022-10-29T17:20:56.620Z,16.05
2022-10-29T17:23:23.445Z,16.01
2022-10-29T17:25:57.720Z,16.07
2022-10-29T17:28:25.958Z,16.03
2022-10-29T17:30:52.862Z,16.17
2022-10-29T17:33:19.777Z,16.18
2022-10-29T17:35:46.432Z,16.26
2022-10-29T17:38:13.148Z,16.16
2022-10-29T17:40:39.890Z,16.08
2022-10-29T17:43:06.591Z,15.91
2022-10-29T17:45:33.238Z,15.74
2022-10-29T17:48:00.325Z,15.68
2022-10-29T17:50:27.436Z,15.63
2022-10-29T17:52:54.894Z,15.54
2022-10-29T17:55:21.466Z,15.74
2022-10-29T17:57:48.067Z,15.70
2022-10-29T18:00:15.104Z,15.65
2022-10-29T18:02:41.824Z,15.59
2022-10-29T18:05:08.621Z,15.78
2022-10-29T18:07:35.192Z,15.81
2022-10-29T18:10:01.750Z,15.81
2022-10-29T18:12:28.382Z,15.69
2022-10-29T18:14:55.086Z,15.56
2022-10-29T18:17:21.662Z,15.49
2022-10-29T18:19:48.237Z,15.50
2022-10-29T18:22:14.930Z,15.58
2022-10-29T18:24:41.510Z,15.64
2022-10-29T18:27:08.096Z,15.61
2022-10-29T18:29:34.718Z,15.35
2022-10-29T18:32:01.286Z,15.18
2022-10-29T18:34:27.922Z,15.09
2022-10-29T18:36:54.591Z,15.14
2022-10-29T18:39:21.108Z,15.18
2022-10-29T18:41:47.705Z,15.20
2022-10-29T18:44:14.261Z,15.35
2022-10-29T18:46:40.812Z,15.50
2022-10-29T18:49:09.159Z,15.39
2022-10-29T18:51:35.767Z,15.39
2022-10-29T18:54:02.335Z,15.28
2022-10-29T18:56:29.841Z,15.11
2022-10-29T18:58:57.564Z,15.07
2022-10-29T19:01:27.541Z,15.16
2022-10-29T19:03:56.396Z,15.14
2022-10-29T19:06:24.959Z,15.04
2022-10-29T19:08:51.989Z,14.98
2022-10-29T19:11:21.670Z,14.90
2022-10-29T19:13:55.283Z,14.84
2022-10-29T19:16:22.339Z,14.85
2022-10-29T19:18:55.029Z,14.78
2022-10-29T19:21:21.726Z,14.76
2022-10-29T19:23:48.318Z,14.76
2022-10-29T19:26:17.984Z,14.77
2022-10-29T19:28:46.559Z,14.82
2022-10-29T19:31:18.282Z,14.70
2022-10-29T19:33:49.345Z,14.62
2022-10-29T19:36:16.617Z,14.57
2022-10-29T19:38:43.317Z,14.52
2022-10-29T19:41:12.345Z,14.40
2022-10-29T19:43:39.969Z,14.47
2022-10-29T19:46:08.731Z,14.40
2022-10-29T19:48:35.844Z,14.44
2022-10-29T19:51:02.464Z,14.31
2022-10-29T19:53:30.523Z,14.20
2022-10-29T19:55:57.541Z,14.17
2022-10-29T19:58:26.896Z,14.20
2022-10-29T20:00:54.291Z,14.06
2022-10-29T20:03:21.237Z,14.09
2022-10-29T20:05:47.892Z,14.04
2022-10-29T20:08:16.320Z,14.00
2022-10-29T20:10:43.479Z,14.09
2022-10-29T20:13:10.414Z,14.01
2022-10-29T20:15:39.786Z,14.03
2022-10-29T20:18:06.341Z,13.99
2022-10-29T20:20:32.991Z,14.01
2022-10-29T20:23:00.319Z,13.97
2022-10-29T20:25:27.657Z,13.99
2022-10-29T20:27:54.285Z,13.93
2022-10-29T20:30:24.086Z,14.05
2022-10-29T20:32:51.100Z,14.13
2022-10-29T20:35:36.157Z,14.13
2022-10-29T20:38:11.317Z,14.05
2022-10-29T20:40:38.034Z,14.20
2022-10-29T20:43:04.609Z,14.13
2022-10-29T20:45:31.167Z,14.09
2022-10-29T20:47:58.013Z,14.17
2022-10-29T20:50:24.887Z,14.12
2022-10-29T20:52:51.748Z,14.09
2022-10-29T20:55:18.362Z,14.02
2022-10-29T20:57:44.948Z,14.03
2022-10-29T21:00:11.907Z,14.03
2022-10-29T21:02:38.547Z,14.05
2022-10-29T21:05:05.404Z,14.12
2022-10-29T21:07:32.154Z,14.04
2022-10-29T21:09:58.694Z,14.02
2022-10-29T21:12:25.264Z,14.01
2022-10-29T21:14:52.027Z,13.98
2022-10-29T21:17:18.756Z,14.07
2022-10-29T21:19:45.298Z,14.01
2022-10-29T21:22:14.917Z,14.00
2022-10-29T21:24:44.603Z,14.12
2022-10-29T21:27:12.419Z,14.16
2022-10-29T21:29:38.984Z,14.18
2022-10-29T21:32:05.716Z,14.14
2022-10-29T21:34:32.361Z,14.09
2022-10-29T21:36:58.906Z,14.21
2022-10-29T21:39:26.466Z,14.26
2022-10-29T21:41:53.143Z,14.19
2022-10-29T21:44:19.683Z,14.08
2022-10-29T21:46:46.376Z,14.14
2022-10-29T21:49:12.936Z,14.21
2022-10-29T21:51:39.691Z,14.29
2022-10-29T21:54:06.238Z,14.25
2022-10-29T21:56:32.833Z,14.22
2022-10-29T21:58:59.495Z,14.21
2022-10-29T22:01:26.115Z,14.21
2022-10-29T22:03:52.891Z,14.17
2022-10-29T22:06:21.706Z,14.17
2022-10-29T22:08:53.629Z,14.19
2022-10-29T22:11:20.357Z,14.11
2022-10-29T22:13:46.941Z,14.03
2022-10-29T22:16:13.844Z,14.02
2022-10-29T22:18:40.672Z,14.01
2022-10-29T22:21:10.103Z,14.03
2022-10-29T22:23:41.051Z,14.05
2022-10-29T22:26:08.212Z,13.96
2022-10-29T22:28:34.776Z,14.02
2022-10-29T22:31:03.300Z,14.07
2022-10-29T22:33:31.803Z,14.05
2022-10-29T22:36:06.571Z,13.97
2022-10-29T22:38:33.159Z,13.91
2022-10-29T22:41:14.263Z,13.88
2022-10-29T22:43:41.030Z,13.88
2022-10-29T22:46:09.056Z,13.88
2022-10-29T22:48:35.851Z,13.89
2022-10-29T22:51:05.230Z,13.97
2022-10-29T22:53:32.182Z,14.19
2022-10-29T22:55:59.683Z,14.10
2022-10-29T22:58:26.370Z,14.03
2022-10-29T23:01:26.783Z,13.97
2022-10-29T23:03:53.723Z,13.96
2022-10-29T23:06:22.001Z,13.96
2022-10-29T23:08:51.509Z,13.96
2022-10-29T23:11:20.667Z,13.98
2022-10-29T23:13:48.585Z,14.20
2022-10-29T23:16:15.779Z,14.07
2022-10-29T23:18:42.389Z,14.06
2022-10-29T23:21:09.509Z,14.14
2022-10-29T23:23:36.515Z,14.12
2022-10-29T23:26:04.228Z,14.10
2022-10-29T23:28:39.258Z,14.19
2022-10-29T23:31:09.823Z,14.33
2022-10-29T23:33:36.609Z,14.53
2022-10-29T23:36:04.478Z,14.62
2022-10-29T23:38:31.652Z,14.60
2022-10-29T23:40:58.412Z,14.47
2022-10-29T23:43:24.957Z,14.39
2022-10-29T23:45:51.553Z,14.32
2022-10-29T23:48:18.404Z,14.29
2022-10-29T23:50:45.690Z,14.45
2022-10-29T23:53:12.544Z,14.40
2022-10-29T23:55:39.148Z,14.46
2022-10-29T23:58:05.694Z,14.28
